sensor_id;sensor_type;location;lat;lon;timestamp;P1;durP1;ratioP1;P2;durP2;ratioP2
19651;SDS011;9974;52.146;14.668;2023-06-10T00:00:38;5.45;;;3.70;;
19651;SDS011;9974;52.146;14.668;2023-06-10T00:03:06;8.32;;;3.78;;
19651;SDS011;9974;52.146;14.668;2023-06-10T00:05:33;7.38;;;3.50;;
19651;SDS011;9974;52.146;14.668;2023-06-10T00:07:59;8.52;;;4.13;;
19651;SDS011;9974;52.146;14.668;2023-06-10T00:10:31;6.22;;;3.13;;
19651;SDS011;9974;52.146;14.668;2023-06-10T00:13:02;8.07;;;3.33;;
19651;SDS011;9974;52.146;14.668;2023-06-10T00:15:29;9.13;;;4.13;;
19651;SDS011;9974;52.146;14.668;2023-06-10T00:17:54;8.68;;;3.72;;
19651;SDS011;9974;52.146;14.668;2023-06-10T00:20:21;8.60;;;4.18;;
19651;SDS011;9974;52.146;14.668;2023-06-10T00:22:48;11.48;;;4.45;;
19651;SDS011;9974;52.146;14.668;2023-06-10T00:25:14;5.50;;;3.47;;
19651;SDS011;9974;52.146;14.668;2023-06-10T00:27:41;8.27;;;3.92;;
19651;SDS011;9974;52.146;14.668;2023-06-10T00:30:06;7.03;;;3.90;;
19651;SDS011;9974;52.146;14.668;2023-06-10T00:32:33;8.07;;;4.13;;
19651;SDS011;9974;52.146;14.668;2023-06-10T00:35:00;7.50;;;3.55;;
19651;SDS011;9974;52.146;14.668;2023-06-10T00:37:26;8.07;;;3.83;;
19651;SDS011;9974;52.146;14.668;2023-06-10T00:39:53;10.02;;;3.92;;
19651;SDS011;9974;52.146;14.668;2023-06-10T00:42:19;9.20;;;4.22;;
19651;SDS011;9974;52.146;14.668;2023-06-10T00:44:47;8.35;;;3.60;;
19651;SDS011;9974;52.146;14.668;2023-06-10T00:47:13;10.60;;;3.40;;
19651;SDS011;9974;52.146;14.668;2023-06-10T00:49:39;10.52;;;4.68;;
19651;SDS011;9974;52.146;14.668;2023-06-10T00:52:06;10.05;;;3.78;;
19651;SDS011;9974;52.146;14.668;2023-06-10T00:54:32;7.50;;;4.22;;
19651;SDS011;9974;52.146;14.668;2023-06-10T00:57:00;5.47;;;3.17;;
19651;SDS011;9974;52.146;14.668;2023-06-10T00:59:30;7.63;;;4.10;;
19651;SDS011;9974;52.146;14.668;2023-06-10T01:01:56;6.53;;;3.95;;
19651;SDS011;9974;52.146;14.668;2023-06-10T01:04:23;7.35;;;4.40;;
19651;SDS011;9974;52.146;14.668;2023-06-10T01:09:55;5.97;;;3.70;;
19651;SDS011;9974;52.146;14.668;2023-06-10T01:13:10;11.93;;;4.63;;
19651;SDS011;9974;52.146;14.668;2023-06-10T01:15:31;6.13;;;3.47;;
19651;SDS011;9974;52.146;14.668;2023-06-10T01:17:59;5.90;;;3.80;;
19651;SDS011;9974;52.146;14.668;2023-06-10T01:20:40;9.02;;;3.97;;
19651;SDS011;9974;52.146;14.668;2023-06-10T01:23:08;8.63;;;4.30;;
19651;SDS011;9974;52.146;14.668;2023-06-10T01:25:39;9.95;;;4.25;;
19651;SDS011;9974;52.146;14.668;2023-06-10T01:33:27;8.90;;;4.40;;
19651;SDS011;9974;52.146;14.668;2023-06-10T01:35:56;6.45;;;3.83;;
19651;SDS011;9974;52.146;14.668;2023-06-10T01:38:24;9.07;;;3.85;;
19651;SDS011;9974;52.146;14.668;2023-06-10T01:40:52;6.55;;;4.57;;
19651;SDS011;9974;52.146;14.668;2023-06-10T01:43:20;6.03;;;3.50;;
19651;SDS011;9974;52.146;14.668;2023-06-10T01:45:46;5.97;;;4.03;;
19651;SDS011;9974;52.146;14.668;2023-06-10T01:48:12;7.60;;;4.30;;
19651;SDS011;9974;52.146;14.668;2023-06-10T01:50:38;9.55;;;4.10;;
19651;SDS011;9974;52.146;14.668;2023-06-10T01:53:04;9.35;;;4.65;;
19651;SDS011;9974;52.146;14.668;2023-06-10T01:55:31;9.02;;;4.10;;
19651;SDS011;9974;52.146;14.668;2023-06-10T01:57:56;6.95;;;3.88;;
19651;SDS011;9974;52.146;14.668;2023-06-10T02:00:22;6.53;;;4.25;;
19651;SDS011;9974;52.146;14.668;2023-06-10T02:02:48;8.65;;;4.15;;
19651;SDS011;9974;52.146;14.668;2023-06-10T02:05:14;10.02;;;4.15;;
19651;SDS011;9974;52.146;14.668;2023-06-10T02:07:40;8.85;;;4.50;;
19651;SDS011;9974;52.146;14.668;2023-06-10T02:10:06;8.32;;;4.43;;
19651;SDS011;9974;52.146;14.668;2023-06-10T02:12:32;10.63;;;4.30;;
19651;SDS011;9974;52.146;14.668;2023-06-10T02:14:58;16.55;;;4.78;;
19651;SDS011;9974;52.146;14.668;2023-06-10T02:17:24;7.78;;;4.10;;
19651;SDS011;9974;52.146;14.668;2023-06-10T02:19:51;9.85;;;4.53;;
19651;SDS011;9974;52.146;14.668;2023-06-10T02:22:21;8.05;;;4.82;;
19651;SDS011;9974;52.146;14.668;2023-06-10T02:24:48;11.00;;;5.30;;
19651;SDS011;9974;52.146;14.668;2023-06-10T02:27:15;8.50;;;4.25;;
19651;SDS011;9974;52.146;14.668;2023-06-10T02:29:41;7.55;;;3.97;;
19651;SDS011;9974;52.146;14.668;2023-06-10T02:32:08;8.40;;;4.63;;
19651;SDS011;9974;52.146;14.668;2023-06-10T02:34:34;7.63;;;4.35;;
19651;SDS011;9974;52.146;14.668;2023-06-10T02:37:01;7.20;;;4.53;;
19651;SDS011;9974;52.146;14.668;2023-06-10T02:39:27;7.20;;;4.15;;
19651;SDS011;9974;52.146;14.668;2023-06-10T02:41:54;15.88;;;6.32;;
19651;SDS011;9974;52.146;14.668;2023-06-10T02:44:20;11.80;;;5.60;;
19651;SDS011;9974;52.146;14.668;2023-06-10T02:46:46;13.98;;;4.47;;
19651;SDS011;9974;52.146;14.668;2023-06-10T02:49:12;7.40;;;3.95;;
19651;SDS011;9974;52.146;14.668;2023-06-10T02:51:38;6.07;;;4.05;;
19651;SDS011;9974;52.146;14.668;2023-06-10T02:54:04;9.95;;;5.30;;
19651;SDS011;9974;52.146;14.668;2023-06-10T02:56:30;8.77;;;5.30;;
19651;SDS011;9974;52.146;14.668;2023-06-10T02:58:57;9.02;;;4.25;;
19651;SDS011;9974;52.146;14.668;2023-06-10T03:01:24;8.57;;;3.72;;
19651;SDS011;9974;52.146;14.668;2023-06-10T03:03:49;6.25;;;4.28;;
19651;SDS011;9974;52.146;14.668;2023-06-10T03:06:16;12.75;;;5.28;;
19651;SDS011;9974;52.146;14.668;2023-06-10T03:08:41;7.97;;;4.28;;
19651;SDS011;9974;52.146;14.668;2023-06-10T03:11:08;8.63;;;4.45;;
19651;SDS011;9974;52.146;14.668;2023-06-10T03:13:33;7.15;;;4.50;;
19651;SDS011;9974;52.146;14.668;2023-06-10T03:15:59;8.82;;;4.53;;
19651;SDS011;9974;52.146;14.668;2023-06-10T03:18:25;7.60;;;5.00;;
19651;SDS011;9974;52.146;14.668;2023-06-10T03:20:53;9.35;;;4.95;;
19651;SDS011;9974;52.146;14.668;2023-06-10T03:23:21;9.20;;;4.63;;
19651;SDS011;9974;52.146;14.668;2023-06-10T03:25:48;12.43;;;4.82;;
19651;SDS011;9974;52.146;14.668;2023-06-10T03:28:13;8.40;;;4.22;;
19651;SDS011;9974;52.146;14.668;2023-06-10T03:30:39;8.90;;;4.93;;
19651;SDS011;9974;52.146;14.668;2023-06-10T03:33:05;8.82;;;4.65;;
19651;SDS011;9974;52.146;14.668;2023-06-10T03:35:31;7.65;;;4.47;;
19651;SDS011;9974;52.146;14.668;2023-06-10T03:37:57;9.13;;;5.30;;
19651;SDS011;9974;52.146;14.668;2023-06-10T03:40:23;9.68;;;4.85;;
19651;SDS011;9974;52.146;14.668;2023-06-10T03:42:49;7.78;;;4.60;;
19651;SDS011;9974;52.146;14.668;2023-06-10T03:45:15;11.07;;;4.82;;
19651;SDS011;9974;52.146;14.668;2023-06-10T03:47:41;7.68;;;4.50;;
19651;SDS011;9974;52.146;14.668;2023-06-10T03:50:08;8.15;;;4.63;;
19651;SDS011;9974;52.146;14.668;2023-06-10T03:52:35;12.20;;;5.28;;
19651;SDS011;9974;52.146;14.668;2023-06-10T03:55:02;9.40;;;5.18;;
19651;SDS011;9974;52.146;14.668;2023-06-10T03:57:28;9.80;;;6.10;;
19651;SDS011;9974;52.146;14.668;2023-06-10T03:59:54;9.18;;;5.70;;
19651;SDS011;9974;52.146;14.668;2023-06-10T04:02:21;9.38;;;5.47;;
19651;SDS011;9974;52.146;14.668;2023-06-10T04:04:47;11.95;;;5.65;;
19651;SDS011;9974;52.146;14.668;2023-06-10T04:07:13;9.38;;;5.50;;
19651;SDS011;9974;52.146;14.668;2023-06-10T04:09:39;8.95;;;5.03;;
19651;SDS011;9974;52.146;14.668;2023-06-10T04:12:06;8.07;;;5.75;;
19651;SDS011;9974;52.146;14.668;2023-06-10T04:14:34;13.90;;;5.95;;
19651;SDS011;9974;52.146;14.668;2023-06-10T04:17:02;11.25;;;5.32;;
19651;SDS011;9974;52.146;14.668;2023-06-10T04:19:31;8.55;;;5.30;;
19651;SDS011;9974;52.146;14.668;2023-06-10T04:21:57;9.32;;;5.72;;
19651;SDS011;9974;52.146;14.668;2023-06-10T04:24:25;9.60;;;6.00;;
19651;SDS011;9974;52.146;14.668;2023-06-10T04:26:51;8.63;;;5.72;;
19651;SDS011;9974;52.146;14.668;2023-06-10T04:29:17;9.18;;;5.95;;
19651;SDS011;9974;52.146;14.668;2023-06-10T04:31:43;10.95;;;6.22;;
19651;SDS011;9974;52.146;14.668;2023-06-10T04:34:11;11.32;;;6.35;;
19651;SDS011;9974;52.146;14.668;2023-06-10T04:36:37;8.45;;;5.75;;
19651;SDS011;9974;52.146;14.668;2023-06-10T04:39:03;9.73;;;5.38;;
19651;SDS011;9974;52.146;14.668;2023-06-10T04:41:30;10.48;;;6.22;;
19651;SDS011;9974;52.146;14.668;2023-06-10T04:43:56;10.57;;;6.90;;
19651;SDS011;9974;52.146;14.668;2023-06-10T04:46:22;10.38;;;6.70;;
19651;SDS011;9974;52.146;14.668;2023-06-10T04:48:49;11.55;;;6.63;;
19651;SDS011;9974;52.146;14.668;2023-06-10T04:51:15;10.38;;;6.63;;
19651;SDS011;9974;52.146;14.668;2023-06-10T04:53:41;12.18;;;7.22;;
19651;SDS011;9974;52.146;14.668;2023-06-10T04:56:07;7.97;;;6.30;;
19651;SDS011;9974;52.146;14.668;2023-06-10T04:58:34;10.93;;;5.93;;
19651;SDS011;9974;52.146;14.668;2023-06-10T05:00:59;10.15;;;6.55;;
19651;SDS011;9974;52.146;14.668;2023-06-10T05:03:26;7.47;;;6.10;;
19651;SDS011;9974;52.146;14.668;2023-06-10T05:05:52;8.15;;;6.25;;
19651;SDS011;9974;52.146;14.668;2023-06-10T05:08:18;10.65;;;7.05;;
19651;SDS011;9974;52.146;14.668;2023-06-10T05:10:45;9.18;;;6.40;;
19651;SDS011;9974;52.146;14.668;2023-06-10T05:13:11;12.63;;;6.97;;
19651;SDS011;9974;52.146;14.668;2023-06-10T05:15:37;11.75;;;6.68;;
19651;SDS011;9974;52.146;14.668;2023-06-10T05:18:03;11.88;;;6.60;;
19651;SDS011;9974;52.146;14.668;2023-06-10T05:20:28;8.90;;;6.35;;
19651;SDS011;9974;52.146;14.668;2023-06-10T05:22:54;10.60;;;6.07;;
19651;SDS011;9974;52.146;14.668;2023-06-10T05:25:20;10.82;;;6.50;;
19651;SDS011;9974;52.146;14.668;2023-06-10T05:27:46;10.23;;;6.95;;
19651;SDS011;9974;52.146;14.668;2023-06-10T05:30:12;11.30;;;7.45;;
19651;SDS011;9974;52.146;14.668;2023-06-10T05:32:38;12.77;;;7.05;;
19651;SDS011;9974;52.146;14.668;2023-06-10T05:35:04;10.40;;;6.10;;
19651;SDS011;9974;52.146;14.668;2023-06-10T05:37:31;8.70;;;6.15;;
19651;SDS011;9974;52.146;14.668;2023-06-10T05:39:58;10.57;;;6.43;;
19651;SDS011;9974;52.146;14.668;2023-06-10T05:42:24;10.75;;;6.38;;
19651;SDS011;9974;52.146;14.668;2023-06-10T05:44:50;8.57;;;6.57;;
19651;SDS011;9974;52.146;14.668;2023-06-10T05:47:16;9.80;;;6.75;;
19651;SDS011;9974;52.146;14.668;2023-06-10T05:49:42;9.07;;;6.45;;
19651;SDS011;9974;52.146;14.668;2023-06-10T05:52:10;8.95;;;6.35;;
19651;SDS011;9974;52.146;14.668;2023-06-10T05:54:36;9.20;;;6.43;;
19651;SDS011;9974;52.146;14.668;2023-06-10T05:57:02;9.40;;;6.30;;
19651;SDS011;9974;52.146;14.668;2023-06-10T05:59:28;8.52;;;6.10;;
19651;SDS011;9974;52.146;14.668;2023-06-10T06:01:54;8.20;;;5.68;;
19651;SDS011;9974;52.146;14.668;2023-06-10T06:04:20;9.52;;;6.25;;
19651;SDS011;9974;52.146;14.668;2023-06-10T06:06:46;8.85;;;6.82;;
19651;SDS011;9974;52.146;14.668;2023-06-10T06:09:11;10.77;;;7.25;;
19651;SDS011;9974;52.146;14.668;2023-06-10T06:11:37;8.27;;;6.70;;
19651;SDS011;9974;52.146;14.668;2023-06-10T06:14:03;9.40;;;6.68;;
19651;SDS011;9974;52.146;14.668;2023-06-10T06:16:30;14.55;;;7.60;;
19651;SDS011;9974;52.146;14.668;2023-06-10T06:18:56;10.30;;;6.57;;
19651;SDS011;9974;52.146;14.668;2023-06-10T06:21:22;10.73;;;6.65;;
19651;SDS011;9974;52.146;14.668;2023-06-10T06:23:48;10.68;;;6.25;;
19651;SDS011;9974;52.146;14.668;2023-06-10T06:26:14;13.73;;;7.43;;
19651;SDS011;9974;52.146;14.668;2023-06-10T06:28:40;14.00;;;7.78;;
19651;SDS011;9974;52.146;14.668;2023-06-10T06:31:06;8.65;;;6.28;;
19651;SDS011;9974;52.146;14.668;2023-06-10T06:33:32;12.48;;;7.93;;
19651;SDS011;9974;52.146;14.668;2023-06-10T06:35:58;9.38;;;6.57;;
19651;SDS011;9974;52.146;14.668;2023-06-10T06:38:25;9.30;;;7.43;;
19651;SDS011;9974;52.146;14.668;2023-06-10T06:40:51;7.68;;;5.90;;
19651;SDS011;9974;52.146;14.668;2023-06-10T06:43:17;8.43;;;6.32;;
19651;SDS011;9974;52.146;14.668;2023-06-10T06:45:43;9.10;;;6.25;;
19651;SDS011;9974;52.146;14.668;2023-06-10T06:48:10;7.43;;;5.35;;
19651;SDS011;9974;52.146;14.668;2023-06-10T06:50:36;9.73;;;5.15;;
19651;SDS011;9974;52.146;14.668;2023-06-10T06:53:02;6.93;;;4.85;;
19651;SDS011;9974;52.146;14.668;2023-06-10T06:55:28;8.05;;;5.20;;
19651;SDS011;9974;52.146;14.668;2023-06-10T06:57:54;9.05;;;3.65;;
19651;SDS011;9974;52.146;14.668;2023-06-10T07:00:20;8.45;;;5.40;;
19651;SDS011;9974;52.146;14.668;2023-06-10T07:02:46;8.20;;;5.43;;
19651;SDS011;9974;52.146;14.668;2023-06-10T07:05:12;9.13;;;4.60;;
19651;SDS011;9974;52.146;14.668;2023-06-10T07:07:39;6.63;;;4.43;;
19651;SDS011;9974;52.146;14.668;2023-06-10T07:10:05;6.82;;;5.38;;
19651;SDS011;9974;52.146;14.668;2023-06-10T07:12:31;8.48;;;5.20;;
19651;SDS011;9974;52.146;14.668;2023-06-10T07:14:57;6.43;;;4.72;;
19651;SDS011;9974;52.146;14.668;2023-06-10T07:17:23;8.90;;;4.32;;
19651;SDS011;9974;52.146;14.668;2023-06-10T07:19:49;9.95;;;5.03;;
19651;SDS011;9974;52.146;14.668;2023-06-10T07:22:16;7.60;;;4.22;;
19651;SDS011;9974;52.146;14.668;2023-06-10T07:24:42;5.90;;;4.25;;
19651;SDS011;9974;52.146;14.668;2023-06-10T07:27:08;6.13;;;3.92;;
19651;SDS011;9974;52.146;14.668;2023-06-10T07:29:35;15.10;;;4.80;;
19651;SDS011;9974;52.146;14.668;2023-06-10T07:32:02;7.70;;;4.45;;
19651;SDS011;9974;52.146;14.668;2023-06-10T07:34:29;6.97;;;3.63;;
19651;SDS011;9974;52.146;14.668;2023-06-10T07:36:55;19.65;;;7.40;;
19651;SDS011;9974;52.146;14.668;2023-06-10T07:39:20;14.30;;;6.07;;
19651;SDS011;9974;52.146;14.668;2023-06-10T07:41:46;18.65;;;5.85;;
19651;SDS011;9974;52.146;14.668;2023-06-10T07:44:14;9.25;;;4.63;;
19651;SDS011;9974;52.146;14.668;2023-06-10T07:46:39;7.40;;;3.53;;
19651;SDS011;9974;52.146;14.668;2023-06-10T07:49:05;4.93;;;3.25;;
19651;SDS011;9974;52.146;14.668;2023-06-10T07:51:31;5.70;;;3.25;;
19651;SDS011;9974;52.146;14.668;2023-06-10T07:53:57;18.05;;;3.90;;
19651;SDS011;9974;52.146;14.668;2023-06-10T07:56:23;6.53;;;2.80;;
19651;SDS011;9974;52.146;14.668;2023-06-10T07:58:50;5.93;;;3.30;;
19651;SDS011;9974;52.146;14.668;2023-06-10T08:01:16;7.10;;;3.22;;
19651;SDS011;9974;52.146;14.668;2023-06-10T08:03:42;5.82;;;3.00;;
19651;SDS011;9974;52.146;14.668;2023-06-10T08:06:08;4.53;;;3.03;;
19651;SDS011;9974;52.146;14.668;2023-06-10T08:08:36;7.38;;;3.30;;
19651;SDS011;9974;52.146;14.668;2023-06-10T08:11:06;5.82;;;3.33;;
19651;SDS011;9974;52.146;14.668;2023-06-10T08:13:32;7.05;;;3.10;;
19651;SDS011;9974;52.146;14.668;2023-06-10T08:15:58;4.25;;;2.95;;
19651;SDS011;9974;52.146;14.668;2023-06-10T08:18:24;4.15;;;2.83;;
19651;SDS011;9974;52.146;14.668;2023-06-10T08:20:50;4.32;;;2.53;;
19651;SDS011;9974;52.146;14.668;2023-06-10T08:23:16;7.35;;;2.88;;
19651;SDS011;9974;52.146;14.668;2023-06-10T08:25:42;4.68;;;2.63;;
19651;SDS011;9974;52.146;14.668;2023-06-10T08:28:08;4.68;;;3.00;;
19651;SDS011;9974;52.146;14.668;2023-06-10T08:30:33;4.32;;;2.72;;
19651;SDS011;9974;52.146;14.668;2023-06-10T08:32:59;4.80;;;2.85;;
19651;SDS011;9974;52.146;14.668;2023-06-10T08:35:25;5.50;;;3.30;;
19651;SDS011;9974;52.146;14.668;2023-06-10T08:37:51;5.78;;;2.97;;
19651;SDS011;9974;52.146;14.668;2023-06-10T08:40:17;6.20;;;2.72;;
19651;SDS011;9974;52.146;14.668;2023-06-10T08:42:44;4.75;;;2.80;;
19651;SDS011;9974;52.146;14.668;2023-06-10T08:45:16;5.93;;;2.95;;
19651;SDS011;9974;52.146;14.668;2023-06-10T08:47:46;3.75;;;2.70;;
19651;SDS011;9974;52.146;14.668;2023-06-10T08:50:18;5.88;;;2.35;;
19651;SDS011;9974;52.146;14.668;2023-06-10T08:52:44;3.83;;;2.53;;
19651;SDS011;9974;52.146;14.668;2023-06-10T08:55:18;4.38;;;2.95;;
19651;SDS011;9974;52.146;14.668;2023-06-10T08:57:52;5.85;;;2.90;;
19651;SDS011;9974;52.146;14.668;2023-06-10T09:00:18;4.13;;;2.58;;
19651;SDS011;9974;52.146;14.668;2023-06-10T09:02:44;6.65;;;3.03;;
19651;SDS011;9974;52.146;14.668;2023-06-10T09:05:11;6.82;;;2.92;;
19651;SDS011;9974;52.146;14.668;2023-06-10T09:07:38;5.72;;;3.50;;
19651;SDS011;9974;52.146;14.668;2023-06-10T09:10:05;5.80;;;3.55;;
19651;SDS011;9974;52.146;14.668;2023-06-10T09:12:34;5.10;;;2.47;;
19651;SDS011;9974;52.146;14.668;2023-06-10T09:15:00;4.78;;;2.75;;
19651;SDS011;9974;52.146;14.668;2023-06-10T09:17:26;5.13;;;2.80;;
19651;SDS011;9974;52.146;14.668;2023-06-10T09:19:53;4.90;;;2.60;;
19651;SDS011;9974;52.146;14.668;2023-06-10T09:22:21;4.88;;;3.05;;
19651;SDS011;9974;52.146;14.668;2023-06-10T09:24:47;6.90;;;3.03;;
19651;SDS011;9974;52.146;14.668;2023-06-10T09:27:14;4.18;;;2.70;;
19651;SDS011;9974;52.146;14.668;2023-06-10T09:29:52;5.57;;;3.15;;
19651;SDS011;9974;52.146;14.668;2023-06-10T09:32:20;4.57;;;3.00;;
19651;SDS011;9974;52.146;14.668;2023-06-10T09:34:46;5.43;;;3.20;;
19651;SDS011;9974;52.146;14.668;2023-06-10T09:37:19;8.30;;;3.30;;
19651;SDS011;9974;52.146;14.668;2023-06-10T09:40:00;4.80;;;2.85;;
19651;SDS011;9974;52.146;14.668;2023-06-10T09:42:34;4.00;;;2.47;;
19651;SDS011;9974;52.146;14.668;2023-06-10T09:45:01;6.10;;;3.05;;
19651;SDS011;9974;52.146;14.668;2023-06-10T09:47:28;7.75;;;2.95;;
19651;SDS011;9974;52.146;14.668;2023-06-10T09:49:54;4.75;;;2.63;;
19651;SDS011;9974;52.146;14.668;2023-06-10T09:52:21;8.07;;;3.17;;
19651;SDS011;9974;52.146;14.668;2023-06-10T09:54:48;6.70;;;2.72;;
19651;SDS011;9974;52.146;14.668;2023-06-10T09:57:17;4.50;;;2.53;;
19651;SDS011;9974;52.146;14.668;2023-06-10T09:59:44;5.82;;;2.78;;
19651;SDS011;9974;52.146;14.668;2023-06-10T10:02:14;8.00;;;3.13;;
19651;SDS011;9974;52.146;14.668;2023-06-10T10:04:41;7.22;;;3.53;;
19651;SDS011;9974;52.146;14.668;2023-06-10T10:07:07;6.15;;;3.25;;
19651;SDS011;9974;52.146;14.668;2023-06-10T10:09:35;9.93;;;3.47;;
19651;SDS011;9974;52.146;14.668;2023-06-10T10:12:02;5.97;;;4.03;;
19651;SDS011;9974;52.146;14.668;2023-06-10T10:14:38;4.70;;;2.88;;
19651;SDS011;9974;52.146;14.668;2023-06-10T10:17:10;4.60;;;3.13;;
19651;SDS011;9974;52.146;14.668;2023-06-10T10:19:40;9.77;;;3.38;;
19651;SDS011;9974;52.146;14.668;2023-06-10T10:22:15;4.35;;;2.83;;
19651;SDS011;9974;52.146;14.668;2023-06-10T10:24:52;7.07;;;3.83;;
19651;SDS011;9974;52.146;14.668;2023-06-10T10:27:33;4.95;;;3.13;;
19651;SDS011;9974;52.146;14.668;2023-06-10T10:30:08;6.57;;;3.65;;
19651;SDS011;9974;52.146;14.668;2023-06-10T10:35:33;5.55;;;3.38;;
19651;SDS011;9974;52.146;14.668;2023-06-10T10:37:59;5.93;;;3.58;;
19651;SDS011;9974;52.146;14.668;2023-06-10T10:40:25;5.13;;;3.67;;
19651;SDS011;9974;52.146;14.668;2023-06-10T10:42:55;6.20;;;3.15;;
19651;SDS011;9974;52.146;14.668;2023-06-10T10:45:21;4.22;;;3.20;;
19651;SDS011;9974;52.146;14.668;2023-06-10T10:47:51;6.85;;;4.22;;
19651;SDS011;9974;52.146;14.668;2023-06-10T10:50:20;8.65;;;4.60;;
19651;SDS011;9974;52.146;14.668;2023-06-10T10:52:54;4.20;;;2.85;;
19651;SDS011;9974;52.146;14.668;2023-06-10T10:55:28;6.97;;;4.45;;
19651;SDS011;9974;52.146;14.668;2023-06-10T10:58:03;6.63;;;3.65;;
19651;SDS011;9974;52.146;14.668;2023-06-10T11:00:34;5.15;;;3.50;;
19651;SDS011;9974;52.146;14.668;2023-06-10T11:03:12;6.10;;;3.75;;
19651;SDS011;9974;52.146;14.668;2023-06-10T11:05:48;6.00;;;3.90;;
19651;SDS011;9974;52.146;14.668;2023-06-10T11:10:58;7.03;;;4.35;;
19651;SDS011;9974;52.146;14.668;2023-06-10T11:13:25;5.30;;;4.00;;
19651;SDS011;9974;52.146;14.668;2023-06-10T11:15:52;5.53;;;3.90;;
19651;SDS011;9974;52.146;14.668;2023-06-10T11:18:25;5.53;;;3.35;;
19651;SDS011;9974;52.146;14.668;2023-06-10T11:20:57;5.47;;;3.38;;
19651;SDS011;9974;52.146;14.668;2023-06-10T11:26:12;8.02;;;4.32;;
19651;SDS011;9974;52.146;14.668;2023-06-10T11:31:26;6.03;;;3.92;;
19651;SDS011;9974;52.146;14.668;2023-06-10T11:34:00;7.30;;;3.88;;
19651;SDS011;9974;52.146;14.668;2023-06-10T11:36:29;8.40;;;4.70;;
19651;SDS011;9974;52.146;14.668;2023-06-10T11:38:56;7.45;;;3.80;;
19651;SDS011;9974;52.146;14.668;2023-06-10T11:41:24;8.40;;;4.10;;
19651;SDS011;9974;52.146;14.668;2023-06-10T11:43:53;7.10;;;3.42;;
19651;SDS011;9974;52.146;14.668;2023-06-10T11:46:23;8.05;;;3.33;;
19651;SDS011;9974;52.146;14.668;2023-06-10T11:48:52;6.22;;;3.15;;
19651;SDS011;9974;52.146;14.668;2023-06-10T11:51:27;7.35;;;4.03;;
19651;SDS011;9974;52.146;14.668;2023-06-10T11:53:56;7.13;;;3.47;;
19651;SDS011;9974;52.146;14.668;2023-06-10T11:56:22;5.70;;;3.38;;
19651;SDS011;9974;52.146;14.668;2023-06-10T11:58:54;8.43;;;3.60;;
19651;SDS011;9974;52.146;14.668;2023-06-10T12:01:22;4.63;;;3.40;;
19651;SDS011;9974;52.146;14.668;2023-06-10T12:04:06;4.70;;;3.08;;
19651;SDS011;9974;52.146;14.668;2023-06-10T12:06:47;6.88;;;3.70;;
19651;SDS011;9974;52.146;14.668;2023-06-10T12:09:15;8.10;;;3.65;;
19651;SDS011;9974;52.146;14.668;2023-06-10T12:11:50;12.95;;;3.75;;
19651;SDS011;9974;52.146;14.668;2023-06-10T12:17:20;5.60;;;2.92;;
19651;SDS011;9974;52.146;14.668;2023-06-10T12:20:02;5.63;;;2.80;;
19651;SDS011;9974;52.146;14.668;2023-06-10T12:22:39;4.47;;;2.45;;
19651;SDS011;9974;52.146;14.668;2023-06-10T12:25:09;4.75;;;3.33;;
19651;SDS011;9974;52.146;14.668;2023-06-10T12:27:38;5.00;;;3.70;;
19651;SDS011;9974;52.146;14.668;2023-06-10T12:30:05;5.22;;;2.92;;
19651;SDS011;9974;52.146;14.668;2023-06-10T12:32:42;4.63;;;3.05;;
19651;SDS011;9974;52.146;14.668;2023-06-10T12:35:11;6.15;;;3.20;;
19651;SDS011;9974;52.146;14.668;2023-06-10T12:37:42;5.45;;;2.42;;
19651;SDS011;9974;52.146;14.668;2023-06-10T12:40:25;5.22;;;3.08;;
19651;SDS011;9974;52.146;14.668;2023-06-10T12:42:55;4.88;;;2.80;;
19651;SDS011;9974;52.146;14.668;2023-06-10T12:45:28;7.13;;;3.08;;
19651;SDS011;9974;52.146;14.668;2023-06-10T12:50:40;4.07;;;2.17;;
19651;SDS011;9974;52.146;14.668;2023-06-10T12:53:07;4.30;;;2.90;;
19651;SDS011;9974;52.146;14.668;2023-06-10T12:55:33;6.57;;;3.38;;
19651;SDS011;9974;52.146;14.668;2023-06-10T12:58:00;4.10;;;2.80;;
19651;SDS011;9974;52.146;14.668;2023-06-10T13:00:26;4.10;;;2.42;;
19651;SDS011;9974;52.146;14.668;2023-06-10T13:02:54;4.75;;;2.97;;
19651;SDS011;9974;52.146;14.668;2023-06-10T13:05:21;3.72;;;2.80;;
19651;SDS011;9974;52.146;14.668;2023-06-10T13:07:48;5.30;;;3.50;;
19651;SDS011;9974;52.146;14.668;2023-06-10T13:10:14;7.72;;;3.53;;
19651;SDS011;9974;52.146;14.668;2023-06-10T13:12:42;5.25;;;3.35;;
19651;SDS011;9974;52.146;14.668;2023-06-10T13:15:08;5.13;;;3.03;;
19651;SDS011;9974;52.146;14.668;2023-06-10T13:17:35;4.82;;;3.13;;
19651;SDS011;9974;52.146;14.668;2023-06-10T13:20:02;4.50;;;3.22;;
19651;SDS011;9974;52.146;14.668;2023-06-10T13:22:30;5.03;;;3.33;;
19651;SDS011;9974;52.146;14.668;2023-06-10T13:24:57;5.53;;;3.08;;
19651;SDS011;9974;52.146;14.668;2023-06-10T13:27:24;6.22;;;3.30;;
19651;SDS011;9974;52.146;14.668;2023-06-10T13:29:50;4.57;;;2.80;;
19651;SDS011;9974;52.146;14.668;2023-06-10T13:32:16;8.15;;;3.40;;
19651;SDS011;9974;52.146;14.668;2023-06-10T13:34:41;7.30;;;3.58;;
19651;SDS011;9974;52.146;14.668;2023-06-10T13:37:07;5.95;;;3.28;;
19651;SDS011;9974;52.146;14.668;2023-06-10T13:39:33;4.50;;;3.13;;
19651;SDS011;9974;52.146;14.668;2023-06-10T13:41:59;9.60;;;3.25;;
19651;SDS011;9974;52.146;14.668;2023-06-10T13:44:25;5.70;;;3.10;;
19651;SDS011;9974;52.146;14.668;2023-06-10T13:46:51;9.77;;;4.35;;
19651;SDS011;9974;52.146;14.668;2023-06-10T13:49:17;8.20;;;3.30;;
19651;SDS011;9974;52.146;14.668;2023-06-10T13:51:43;4.53;;;2.88;;
19651;SDS011;9974;52.146;14.668;2023-06-10T13:54:10;5.53;;;3.45;;
19651;SDS011;9974;52.146;14.668;2023-06-10T13:56:39;9.93;;;3.42;;
19651;SDS011;9974;52.146;14.668;2023-06-10T13:59:05;7.15;;;3.15;;
19651;SDS011;9974;52.146;14.668;2023-06-10T14:01:31;5.68;;;3.30;;
19651;SDS011;9974;52.146;14.668;2023-06-10T14:03:57;10.70;;;3.80;;
19651;SDS011;9974;52.146;14.668;2023-06-10T14:06:23;9.85;;;3.50;;
19651;SDS011;9974;52.146;14.668;2023-06-10T14:08:49;6.82;;;3.40;;
19651;SDS011;9974;52.146;14.668;2023-06-10T14:11:15;8.88;;;3.45;;
19651;SDS011;9974;52.146;14.668;2023-06-10T14:13:41;5.32;;;3.17;;
19651;SDS011;9974;52.146;14.668;2023-06-10T14:16:07;7.80;;;3.42;;
19651;SDS011;9974;52.146;14.668;2023-06-10T14:18:33;7.50;;;3.25;;
19651;SDS011;9974;52.146;14.668;2023-06-10T14:20:59;10.95;;;4.97;;
19651;SDS011;9974;52.146;14.668;2023-06-10T14:23:25;5.80;;;3.10;;
19651;SDS011;9974;52.146;14.668;2023-06-10T14:25:51;11.18;;;4.13;;
19651;SDS011;9974;52.146;14.668;2023-06-10T14:28:17;6.05;;;3.83;;
19651;SDS011;9974;52.146;14.668;2023-06-10T14:30:43;9.07;;;3.55;;
19651;SDS011;9974;52.146;14.668;2023-06-10T14:33:09;8.30;;;4.22;;
19651;SDS011;9974;52.146;14.668;2023-06-10T14:35:35;7.35;;;3.83;;
19651;SDS011;9974;52.146;14.668;2023-06-10T14:38:01;5.30;;;3.60;;
19651;SDS011;9974;52.146;14.668;2023-06-10T14:40:26;6.30;;;4.00;;
19651;SDS011;9974;52.146;14.668;2023-06-10T14:42:54;7.10;;;3.28;;
19651;SDS011;9974;52.146;14.668;2023-06-10T14:45:20;6.55;;;4.10;;
19651;SDS011;9974;52.146;14.668;2023-06-10T14:47:46;6.00;;;4.43;;
19651;SDS011;9974;52.146;14.668;2023-06-10T14:50:12;6.00;;;3.95;;
19651;SDS011;9974;52.146;14.668;2023-06-10T14:52:38;5.18;;;3.50;;
19651;SDS011;9974;52.146;14.668;2023-06-10T14:55:04;5.55;;;3.13;;
19651;SDS011;9974;52.146;14.668;2023-06-10T14:57:30;5.80;;;2.40;;
19651;SDS011;9974;52.146;14.668;2023-06-10T14:59:56;7.70;;;3.05;;
19651;SDS011;9974;52.146;14.668;2023-06-10T15:02:22;5.85;;;2.80;;
19651;SDS011;9974;52.146;14.668;2023-06-10T15:04:48;5.00;;;2.50;;
19651;SDS011;9974;52.146;14.668;2023-06-10T15:07:14;4.68;;;2.22;;
19651;SDS011;9974;52.146;14.668;2023-06-10T15:09:40;7.13;;;2.58;;
19651;SDS011;9974;52.146;14.668;2023-06-10T15:12:07;4.15;;;2.47;;